Time;durP1;ratioP1;P1;durP2;ratioP2;P2;SDS_P1;SDS_P2;PMS_P1;PMS_P2;Temp;Humidity;BMP_temperature;BMP_pressure;BME280_temperature;BME280_humidity;BME280_pressure;Samples;Min_cycle;Max_cycle;Signal;HPM_P1;HPM_P2
2021/03/06 00:02:24;;;;;;;30.25;3.97;;;1.30;99.90;;;;;;5033272;28;20041;-53
2021/03/06 00:04:50;;;;;;;9.93;3.00;;;1.30;99.90;;;;;;5033464;28;20045;-52
2021/03/06 00:07:16;;;;;;;11.15;3.42;;;1.20;99.90;;;;;;5032770;28;20037;-53
2021/03/06 00:09:41;;;;;;;10.23;2.95;;;1.20;99.90;;;;;;5033032;28;20038;-57
2021/03/06 00:12:07;;;;;;;12.93;3.40;;;1.20;99.90;;;;;;5032371;28;20033;-55
2021/03/06 00:14:33;;;;;;;11.10;2.80;;;1.20;99.90;;;;;;5033112;28;20056;-54
2021/03/06 00:17:00;;;;;;;11.15;3.20;;;1.20;99.90;;;;;;5032347;28;20717;-54
2021/03/06 00:19:26;;;;;;;8.95;3.20;;;1.10;99.90;;;;;;5033199;28;20056;-54
2021/03/06 00:21:52;;;;;;;9.98;3.17;;;1.10;99.90;;;;;;5031192;28;20475;-54
2021/03/06 00:24:17;;;;;;;18.45;3.60;;;1.10;99.90;;;;;;5032919;28;20159;-56
2021/03/06 00:26:43;;;;;;;12.95;3.70;;;1.00;99.90;;;;;;5032490;28;20037;-53
2021/03/06 00:29:09;;;;;;;11.68;3.03;;;1.00;99.90;;;;;;5033187;28;20034;-55
2021/03/06 00:31:36;;;;;;;9.60;2.95;;;1.00;99.90;;;;;;5032176;28;20033;-53
2021/03/06 00:34:03;;;;;;;7.43;2.83;;;1.00;99.90;;;;;;5032800;28;20029;-56
2021/03/06 00:36:29;;;;;;;16.27;3.42;;;0.90;99.90;;;;;;5032326;28;20052;-55
2021/03/06 00:38:55;;;;;;;27.80;6.03;;;0.90;99.90;;;;;;5031982;28;20033;-56
2021/03/06 00:41:21;;;;;;;42.97;6.70;;;0.80;99.90;;;;;;5032090;28;20087;-57
2021/03/06 00:43:47;;;;;;;16.23;5.85;;;0.90;99.90;;;;;;5032751;28;20372;-56
2021/03/06 00:46:13;;;;;;;26.00;5.80;;;0.80;99.90;;;;;;5032247;28;20456;-53
2021/03/06 00:48:39;;;;;;;10.35;3.65;;;0.90;99.90;;;;;;5031855;28;20140;-51
2021/03/06 00:51:06;;;;;;;6.43;3.20;;;0.90;99.90;;;;;;5032245;28;20088;-52
2021/03/06 00:53:33;;;;;;;12.18;3.53;;;0.80;99.90;;;;;;5031449;28;20049;-51
2021/03/06 00:55:58;;;;;;;15.43;3.70;;;0.90;99.90;;;;;;5031922;28;20785;-54
2021/03/06 00:58:24;;;;;;;10.00;3.42;;;0.90;99.90;;;;;;5032865;28;20036;-55
2021/03/06 01:00:50;;;;;;;13.32;3.67;;;0.90;99.90;;;;;;5031584;28;20087;-57
2021/03/06 01:03:15;;;;;;;7.45;2.97;;;0.90;99.90;;;;;;5032941;28;20025;-53
2021/03/06 01:05:41;;;;;;;7.82;2.90;;;0.90;99.90;;;;;;5031288;28;20037;-53
2021/03/06 01:08:07;;;;;;;11.43;3.03;;;0.90;99.90;;;;;;5032643;28;20034;-51
2021/03/06 01:10:39;;;;;;;9.80;4.10;;;0.90;99.90;;;;;;5031168;28;20447;-58
2021/03/06 01:13:05;;;;;;;11.10;3.58;;;0.90;99.90;;;;;;5032700;28;20039;-52
2021/03/06 01:15:32;;;;;;;8.63;3.30;;;0.90;99.90;;;;;;5031379;28;20068;-54
2021/03/06 01:17:58;;;;;;;9.25;3.63;;;0.90;99.90;;;;;;5032554;28;20479;-50
2021/03/06 01:20:24;;;;;;;9.35;4.05;;;0.80;99.90;;;;;;5031482;28;20060;-56
2021/03/06 01:22:50;;;;;;;13.27;4.38;;;0.80;99.90;;;;;;5031561;28;20029;-55
2021/03/06 01:25:17;;;;;;;15.25;4.88;;;0.70;99.90;;;;;;5030393;28;20128;-54
2021/03/06 01:27:42;;;;;;;9.10;3.90;;;0.70;99.90;;;;;;5031404;28;20033;-53
2021/03/06 01:30:11;;;;;;;10.07;4.00;;;0.70;99.90;;;;;;5031766;28;20040;-50
2021/03/06 01:32:37;;;;;;;16.33;4.65;;;0.70;99.90;;;;;;5030992;28;20391;-52
2021/03/06 01:35:12;;;;;;;15.55;6.32;;;0.70;99.90;;;;;;5031631;28;20038;-55
2021/03/06 01:37:39;;;;;;;9.95;4.53;;;0.80;99.90;;;;;;5031104;28;20048;-54
2021/03/06 01:40:11;;;;;;;8.02;3.47;;;0.90;99.90;;;;;;5031554;28;20025;-51
2021/03/06 01:42:36;;;;;;;14.88;4.78;;;0.90;99.90;;;;;;5030092;28;20368;-54
2021/03/06 01:45:03;;;;;;;9.10;4.60;;;0.90;99.90;;;;;;5031432;28;20038;-52
2021/03/06 01:47:29;;;;;;;13.75;4.40;;;0.80;99.90;;;;;;5030308;28;20591;-52
2021/03/06 01:49:55;;;;;;;16.00;3.65;;;0.80;99.90;;;;;;5031314;28;20116;-55
2021/03/06 01:52:21;;;;;;;8.27;3.72;;;0.80;99.90;;;;;;5030943;28;20068;-55
2021/03/06 01:54:47;;;;;;;11.48;4.43;;;0.80;99.90;;;;;;5030191;28;20033;-54
2021/03/06 01:57:13;;;;;;;11.23;3.78;;;0.70;99.90;;;;;;5030736;28;20107;-56
2021/03/06 01:59:39;;;;;;;13.93;4.10;;;0.70;99.90;;;;;;5031583;28;20183;-54
2021/03/06 02:02:06;;;;;;;10.95;3.80;;;0.70;99.90;;;;;;5030878;28;20100;-51
2021/03/06 02:04:35;;;;;;;10.00;3.85;;;0.70;99.90;;;;;;5031790;28;20077;-56
2021/03/06 02:07:02;;;;;;;10.32;3.55;;;0.70;99.90;;;;;;5030694;28;20037;-55
2021/03/06 02:09:28;;;;;;;10.73;3.95;;;0.60;99.90;;;;;;5031479;28;20026;-56
2021/03/06 02:12:24;;;;;;;13.32;4.18;;;0.60;99.90;;;;;;5030929;28;20487;-54
2021/03/06 02:15:09;;;;;;;10.15;4.22;;;0.60;99.90;;;;;;5030854;28;20061;-52
2021/03/06 02:17:48;;;;;;;16.17;4.68;;;0.60;99.90;;;;;;5030640;28;20033;-51
2021/03/06 02:20:39;;;;;;;10.07;4.68;;;0.60;99.90;;;;;;5029864;28;20128;-51
2021/03/06 02:23:35;;;;;;;13.10;5.13;;;0.50;99.90;;;;;;5030638;28;20075;-56
2021/03/06 02:26:13;;;;;;;16.45;5.38;;;0.40;99.90;;;;;;5029487;28;20072;-56
2021/03/06 02:28:58;;;;;;;9.82;4.95;;;0.40;99.90;;;;;;5031460;28;20759;-53
2021/03/06 02:31:25;;;;;;;8.93;5.22;;;0.40;99.90;;;;;;5030407;28;20038;-53
2021/03/06 02:34:00;;;;;;;13.30;5.75;;;0.40;99.90;;;;;;5031156;28;20061;-51
2021/03/06 02:36:27;;;;;;;19.08;4.40;;;0.30;99.90;;;;;;5029677;28;20360;-53
2021/03/06 02:38:57;;;;;;;11.38;5.00;;;0.30;99.90;;;;;;5030851;28;20527;-55
2021/03/06 02:41:25;;;;;;;14.13;5.15;;;0.30;99.90;;;;;;5029767;28;20044;-53
2021/03/06 02:43:52;;;;;;;14.52;5.15;;;0.30;99.90;;;;;;5031068;28;20044;-50
2021/03/06 02:46:22;;;;;;;11.48;5.05;;;0.30;99.90;;;;;;5030098;28;20068;-53
2021/03/06 02:48:48;;;;;;;12.15;5.80;;;0.30;99.90;;;;;;5031053;28;20045;-49
2021/03/06 02:51:14;;;;;;;10.90;4.95;;;0.30;99.90;;;;;;5029565;28;20030;-54
2021/03/06 02:53:40;;;;;;;11.48;5.20;;;0.20;99.90;;;;;;5030909;28;20047;-51
2021/03/06 02:56:06;;;;;;;12.32;5.22;;;0.30;99.90;;;;;;5030954;28;20403;-56
2021/03/06 02:58:55;;;;;;;8.98;4.63;;;0.20;99.90;;;;;;5029940;28;20113;-50
2021/03/06 03:01:55;;;;;;;12.38;4.90;;;0.20;99.90;;;;;;5029383;28;20038;-54
2021/03/06 03:04:51;;;;;;;11.27;4.72;;;0.20;99.90;;;;;;5030598;28;20025;-52
2021/03/06 03:07:27;;;;;;;7.97;4.40;;;0.10;99.90;;;;;;5034072;28;20091;-55
2021/03/06 03:09:59;;;;;;;14.82;4.35;;;0.10;99.90;;;;;;5033697;28;20036;-54
2021/03/06 03:12:33;;;;;;;11.75;4.20;;;0.00;99.90;;;;;;5033511;28;20037;-55
2021/03/06 03:15:16;;;;;;;11.95;4.15;;;0.00;99.90;;;;;;5034496;28;20041;-52
2021/03/06 03:17:45;;;;;;;16.85;4.60;;;0.00;99.90;;;;;;5033154;28;20048;-55
2021/03/06 03:20:11;;;;;;;10.10;4.45;;;-0.10;99.90;;;;;;5034610;28;20042;-52
2021/03/06 03:22:41;;;;;;;10.15;4.10;;;0.00;99.90;;;;;;5033838;28;20402;-58
2021/03/06 03:25:10;;;;;;;11.32;4.50;;;0.00;99.90;;;;;;5034246;28;20037;-52
2021/03/06 03:27:37;;;;;;;8.85;3.95;;;-0.10;99.90;;;;;;5033161;28;20479;-52
2021/03/06 03:30:12;;;;;;;11.07;4.38;;;-0.10;99.90;;;;;;5034330;28;20594;-55
2021/03/06 03:32:39;;;;;;;9.95;4.55;;;-0.10;99.90;;;;;;5032875;28;20124;-56
2021/03/06 03:35:06;;;;;;;10.05;4.00;;;-0.10;99.90;;;;;;5014534;28;20459;-53
2021/03/06 03:37:35;;;;;;;8.95;4.13;;;-0.10;99.90;;;;;;5024863;28;20076;-52
2021/03/06 03:40:02;;;;;;;15.23;4.50;;;0.00;99.90;;;;;;5033062;28;20487;-52
2021/03/06 03:42:28;;;;;;;11.90;3.85;;;-0.10;99.90;;;;;;5015179;28;20084;-55
2021/03/06 03:44:54;;;;;;;9.50;3.13;;;0.00;99.90;;;;;;5034428;28;20049;-52
2021/03/06 03:47:21;;;;;;;8.13;3.50;;;0.10;99.90;;;;;;5031677;28;20372;-55
2021/03/06 03:49:47;;;;;;;8.13;3.30;;;0.00;99.90;;;;;;5018443;28;20025;-53
2021/03/06 03:52:13;;;;;;;11.90;3.30;;;-0.10;99.90;;;;;;5032553;28;20040;-51
2021/03/06 03:54:40;;;;;;;8.98;3.60;;;-0.10;99.90;;;;;;5033379;28;20062;-53
2021/03/06 03:57:08;;;;;;;12.32;3.42;;;0.00;99.90;;;;;;5031330;28;20124;-50
2021/03/06 03:59:34;;;;;;;6.90;3.30;;;0.00;99.90;;;;;;5034213;28;20112;-53
2021/03/06 04:02:00;;;;;;;6.68;3.47;;;0.00;99.90;;;;;;5033014;28;20470;-53
2021/03/06 04:04:25;;;;;;;11.82;3.35;;;0.00;99.90;;;;;;5033721;28;20033;-53
2021/03/06 04:06:51;;;;;;;10.20;3.00;;;0.00;99.90;;;;;;5032713;28;20410;-54
2021/03/06 04:09:17;;;;;;;9.38;2.88;;;0.10;99.90;;;;;;5015832;28;20117;-53
2021/03/06 04:11:43;;;;;;;15.55;3.90;;;0.00;99.90;;;;;;5032577;28;20037;-50
2021/03/06 04:14:08;;;;;;;15.43;3.72;;;0.10;99.90;;;;;;5033637;28;20035;-54
2021/03/06 04:16:34;;;;;;;9.00;3.30;;;0.20;99.90;;;;;;5033023;28;20095;-52
2021/03/06 04:19:00;;;;;;;7.05;3.47;;;0.20;99.90;;;;;;5032103;28;20064;-53
2021/03/06 04:21:26;;;;;;;8.07;3.35;;;0.20;99.90;;;;;;5032744;28;20441;-54
2021/03/06 04:23:51;;;;;;;7.40;3.20;;;0.20;99.90;;;;;;5032943;28;20029;-50
2021/03/06 04:26:17;;;;;;;6.28;3.47;;;0.10;99.90;;;;;;5032995;28;20119;-51
2021/03/06 04:28:43;;;;;;;6.25;3.08;;;0.10;99.90;;;;;;5032401;28;20071;-53
2021/03/06 04:31:08;;;;;;;10.52;3.67;;;0.10;99.90;;;;;;5033143;28;20041;-51
2021/03/06 04:33:34;;;;;;;19.33;3.88;;;0.10;99.90;;;;;;5032232;28;20117;-49
2021/03/06 04:36:00;;;;;;;11.98;3.20;;;0.20;99.90;;;;;;5032258;28;20029;-50
2021/03/06 04:38:26;;;;;;;8.48;3.75;;;0.20;99.90;;;;;;5032205;28;20038;-50
2021/03/06 04:40:52;;;;;;;7.63;3.28;;;0.10;99.90;;;;;;5032592;28;20036;-52
2021/03/06 04:43:18;;;;;;;7.35;3.47;;;0.10;99.90;;;;;;5032463;28;20052;-53
2021/03/06 04:45:43;;;;;;;7.30;3.20;;;0.10;99.90;;;;;;5031479;28;20041;-50
2021/03/06 04:48:09;;;;;;;7.07;3.33;;;0.10;99.90;;;;;;5031940;28;20072;-52
2021/03/06 04:50:35;;;;;;;9.60;3.38;;;0.10;99.90;;;;;;5031944;28;21436;-53
2021/03/06 04:53:01;;;;;;;8.50;3.30;;;0.10;99.90;;;;;;5032194;28;20036;-56
2021/03/06 04:55:26;;;;;;;12.00;3.70;;;0.10;99.90;;;;;;5032124;28;20120;-51
2021/03/06 04:57:52;;;;;;;14.75;3.75;;;0.10;99.90;;;;;;5031610;28;20022;-52
2021/03/06 05:00:18;;;;;;;9.07;3.00;;;0.10;99.90;;;;;;5032152;28;20414;-51
2021/03/06 05:02:44;;;;;;;11.40;4.20;;;0.00;99.90;;;;;;5032165;28;20041;-53
2021/03/06 05:05:10;;;;;;;10.40;3.45;;;0.10;99.90;;;;;;5032005;28;20164;-54
2021/03/06 05:07:36;;;;;;;13.88;3.95;;;0.10;99.90;;;;;;5032010;28;20021;-48
2021/03/06 05:10:03;;;;;;;12.63;3.83;;;0.10;99.90;;;;;;5032182;28;20048;-55
2021/03/06 05:12:29;;;;;;;7.65;3.40;;;0.10;99.90;;;;;;5031783;28;20022;-53
2021/03/06 05:14:54;;;;;;;14.50;4.20;;;0.10;99.90;;;;;;5032144;28;20116;-54
2021/03/06 05:17:20;;;;;;;9.88;3.83;;;0.10;99.90;;;;;;5031266;28;20944;-56
2021/03/06 05:19:46;;;;;;;12.25;3.88;;;0.10;99.90;;;;;;5032240;28;20053;-52
2021/03/06 05:22:11;;;;;;;17.52;3.97;;;0.20;99.90;;;;;;5030980;28;20039;-55
2021/03/06 05:24:37;;;;;;;12.73;4.07;;;0.20;99.90;;;;;;5031258;28;20037;-52
2021/03/06 05:27:03;;;;;;;12.35;3.95;;;0.20;99.90;;;;;;5031749;28;20460;-52
2021/03/06 05:29:34;;;;;;;10.93;3.60;;;0.30;99.90;;;;;;5031157;28;20104;-53
2021/03/06 05:32:01;;;;;;;15.05;4.38;;;0.30;99.90;;;;;;5032206;28;20037;-54
2021/03/06 05:34:27;;;;;;;9.77;3.63;;;0.30;99.90;;;;;;5031218;28;20022;-52
2021/03/06 05:36:53;;;;;;;8.88;4.15;;;0.40;99.90;;;;;;5031718;28;20029;-51
2021/03/06 05:39:19;;;;;;;12.02;4.20;;;0.40;99.90;;;;;;5031193;28;20064;-54
2021/03/06 05:41:46;;;;;;;11.02;3.97;;;0.40;99.90;;;;;;5032063;28;20061;-52
2021/03/06 05:44:13;;;;;;;9.70;4.20;;;0.40;99.90;;;;;;5030596;28;20026;-53
2021/03/06 05:46:40;;;;;;;11.93;3.95;;;0.40;99.90;;;;;;5031990;28;20041;-55
2021/03/06 05:49:07;;;;;;;14.70;4.25;;;0.50;99.90;;;;;;5029915;28;20484;-55
2021/03/06 05:51:34;;;;;;;10.57;3.95;;;0.50;99.90;;;;;;5012650;28;20056;-53
2021/03/06 05:54:06;;;;;;;9.80;3.85;;;0.50;99.90;;;;;;5028719;28;20454;-54
2021/03/06 05:56:36;;;;;;;16.17;3.53;;;0.50;99.90;;;;;;5031183;28;20095;-52
2021/03/06 05:59:10;;;;;;;9.45;3.45;;;0.50;99.90;;;;;;5030625;28;20037;-53
2021/03/06 06:01:37;;;;;;;7.03;3.13;;;0.50;99.90;;;;;;5031732;28;20096;-54
2021/03/06 06:04:05;;;;;;;14.02;4.97;;;0.50;99.90;;;;;;5030359;28;20371;-53
2021/03/06 06:06:32;;;;;;;10.13;4.10;;;0.60;99.90;;;;;;5031450;28;20077;-54
2021/03/06 06:08:58;;;;;;;11.32;3.78;;;0.60;99.90;;;;;;5030832;28;20068;-55
2021/03/06 06:11:27;;;;;;;11.45;4.10;;;0.60;99.90;;;;;;5031801;28;20041;-52
2021/03/06 06:13:56;;;;;;;16.98;4.05;;;0.70;99.90;;;;;;5030540;28;20034;-51
2021/03/06 06:16:23;;;;;;;11.50;4.10;;;0.70;99.90;;;;;;5031507;28;20029;-51
2021/03/06 06:18:52;;;;;;;14.18;4.40;;;0.60;99.90;;;;;;5030161;28;20124;-52
2021/03/06 06:21:36;;;;;;;8.25;3.80;;;0.70;99.90;;;;;;5031457;28;20107;-52
2021/03/06 06:24:06;;;;;;;9.52;3.78;;;0.70;99.90;;;;;;5030154;28;20120;-51
2021/03/06 06:26:32;;;;;;;10.15;4.28;;;0.80;99.90;;;;;;5031367;28;20049;-49
2021/03/06 06:28:58;;;;;;;12.30;4.78;;;0.80;99.90;;;;;;5030579;28;20045;-50
2021/03/06 06:31:24;;;;;;;21.27;5.13;;;0.80;99.90;;;;;;5031429;28;20048;-54
2021/03/06 06:33:53;;;;;;;12.55;5.05;;;0.90;99.90;;;;;;5030097;28;20531;-50
2021/03/06 06:36:33;;;;;;;17.73;5.68;;;0.90;99.90;;;;;;5033116;28;20471;-50
2021/03/06 06:38:59;;;;;;;15.13;5.85;;;0.90;99.90;;;;;;5034128;28;20025;-52
2021/03/06 06:41:52;;;;;;;16.45;6.60;;;0.90;99.90;;;;;;5035039;28;20053;-51
2021/03/06 06:44:17;;;;;;;14.70;5.50;;;1.00;99.90;;;;;;5034510;28;20065;-58
2021/03/06 06:46:44;;;;;;;16.55;5.82;;;1.10;99.90;;;;;;5035010;28;20114;-54
2021/03/06 06:49:10;;;;;;;15.32;5.93;;;1.20;99.90;;;;;;5033845;28;20372;-53
2021/03/06 06:51:35;;;;;;;17.33;6.22;;;1.10;99.90;;;;;;5035025;28;20525;-55
2021/03/06 06:54:13;;;;;;;17.52;6.43;;;1.20;99.90;;;;;;5033445;28;20061;-51
2021/03/06 06:56:40;;;;;;;16.05;7.32;;;1.20;99.90;;;;;;5034996;28;20029;-52
2021/03/06 06:59:08;;;;;;;17.20;6.97;;;1.20;99.90;;;;;;5034182;28;20033;-57
2021/03/06 07:01:36;;;;;;;14.68;6.38;;;1.20;99.90;;;;;;5035097;28;20096;-51
2021/03/06 07:04:05;;;;;;;18.08;6.47;;;1.20;99.90;;;;;;5033594;28;20034;-56
2021/03/06 07:06:32;;;;;;;22.67;6.75;;;1.20;99.90;;;;;;5034847;28;20048;-55
2021/03/06 07:09:05;;;;;;;14.32;6.22;;;1.10;99.90;;;;;;5034015;28;20033;-54
2021/03/06 07:11:30;;;;;;;17.58;7.45;;;1.20;99.90;;;;;;5034576;28;20072;-50
2021/03/06 07:13:56;;;;;;;16.17;6.60;;;1.20;99.90;;;;;;5034045;28;20041;-52
2021/03/06 07:16:22;;;;;;;20.35;6.72;;;1.20;99.90;;;;;;5034626;28;20026;-57
2021/03/06 07:18:59;;;;;;;14.43;6.65;;;1.30;99.90;;;;;;5033580;28;20029;-54
2021/03/06 07:21:25;;;;;;;18.33;7.20;;;1.40;99.90;;;;;;5033517;28;20049;-49
2021/03/06 07:23:51;;;;;;;19.65;6.93;;;1.40;99.90;;;;;;5033312;28;20118;-48
2021/03/06 07:26:17;;;;;;;16.40;7.32;;;1.50;99.90;;;;;;5034303;28;20042;-51
2021/03/06 07:28:43;;;;;;;16.02;6.95;;;1.50;99.90;;;;;;5033121;28;20483;-51
2021/03/06 07:31:09;;;;;;;20.33;6.63;;;1.50;99.90;;;;;;5034106;28;20033;-52
2021/03/06 07:33:36;;;;;;;19.52;6.45;;;1.60;99.90;;;;;;5015973;28;20034;-49
2021/03/06 07:36:07;;;;;;;17.98;6.68;;;1.60;99.90;;;;;;5016413;28;20060;-55
2021/03/06 07:38:34;;;;;;;19.02;7.22;;;1.60;99.90;;;;;;5033152;28;20029;-53
2021/03/06 07:41:05;;;;;;;16.05;6.95;;;1.70;99.90;;;;;;5034560;28;20056;-54
2021/03/06 07:43:34;;;;;;;26.63;7.68;;;1.70;99.90;;;;;;5033430;28;20100;-49
2021/03/06 07:46:01;;;;;;;16.23;6.63;;;1.80;99.90;;;;;;5016680;28;20415;-49
2021/03/06 07:48:42;;;;;;;20.40;7.38;;;1.80;99.90;;;;;;5031524;28;20067;-50
2021/03/06 07:51:09;;;;;;;16.23;7.47;;;1.80;99.90;;;;;;5033175;28;20021;-53
2021/03/06 07:53:36;;;;;;;16.73;6.70;;;1.90;99.90;;;;;;5031642;28;20033;-52
2021/03/06 07:56:08;;;;;;;15.95;6.30;;;2.00;99.90;;;;;;5033161;28;20036;-57
2021/03/06 07:58:50;;;;;;;15.15;6.45;;;1.90;99.90;;;;;;5030311;28;20033;-52
2021/03/06 08:01:27;;;;;;;17.00;6.50;;;2.00;99.90;;;;;;5032403;28;20032;-54
2021/03/06 08:03:52;;;;;;;14.40;5.78;;;2.00;99.90;;;;;;5027605;28;20108;-56
2021/03/06 08:06:20;;;;;;;18.38;6.05;;;2.10;99.90;;;;;;5031456;28;20117;-51
2021/03/06 08:08:46;;;;;;;16.55;6.22;;;2.10;99.90;;;;;;5028765;28;20034;-49
2021/03/06 08:11:12;;;;;;;13.80;5.78;;;2.10;99.90;;;;;;5031892;28;20095;-51
2021/03/06 08:13:52;;;;;;;12.07;6.50;;;2.10;99.90;;;;;;5032163;28;20026;-53
2021/03/06 08:16:20;;;;;;;15.40;5.78;;;2.20;99.90;;;;;;5032207;28;20030;-52
2021/03/06 08:18:56;;;;;;;15.80;6.72;;;2.30;99.90;;;;;;5030185;28;20083;-51
2021/03/06 08:21:40;;;;;;;11.77;5.53;;;2.40;99.90;;;;;;5031041;28;20069;-52
2021/03/06 08:24:15;;;;;;;18.65;6.53;;;2.50;99.90;;;;;;5029996;28;20030;-56
2021/03/06 08:26:43;;;;;;;20.10;6.80;;;2.60;99.90;;;;;;5031227;28;20064;-51
2021/03/06 08:29:24;;;;;;;17.83;6.78;;;2.60;99.90;;;;;;5031674;28;20031;-49
2021/03/06 08:32:16;;;;;;;16.52;5.68;;;2.70;99.90;;;;;;5031324;28;20095;-51
2021/03/06 08:34:44;;;;;;;13.18;5.32;;;2.80;99.90;;;;;;5027801;28;20475;-55
2021/03/06 08:37:16;;;;;;;21.30;5.50;;;2.90;99.90;;;;;;5031970;28;20025;-51
2021/03/06 08:39:47;;;;;;;21.90;7.93;;;3.00;99.90;;;;;;5029931;28;20065;-54
2021/03/06 08:42:15;;;;;;;19.30;5.70;;;3.00;99.90;;;;;;5032299;28;20028;-54
2021/03/06 08:44:41;;;;;;;22.80;6.15;;;3.10;99.90;;;;;;5029722;28;20072;-53
2021/03/06 08:47:08;;;;;;;19.58;5.75;;;3.20;99.90;;;;;;5029569;28;20041;-52
2021/03/06 08:49:35;;;;;;;22.70;6.25;;;3.20;99.90;;;;;;5029381;28;20068;-56
2021/03/06 08:52:01;;;;;;;28.65;6.20;;;3.30;99.90;;;;;;5031611;28;20372;-55
2021/03/06 08:54:36;;;;;;;31.90;6.90;;;3.40;99.90;;;;;;5029964;28;20388;-51
2021/03/06 08:57:01;;;;;;;39.97;6.65;;;3.60;99.90;;;;;;5031947;28;20502;-54
2021/03/06 08:59:38;;;;;;;41.63;7.13;;;3.70;99.90;;;;;;5028907;28;20041;-53
2021/03/06 09:02:18;;;;;;;37.67;6.40;;;3.80;99.90;;;;;;5031545;28;20037;-53
2021/03/06 09:04:44;;;;;;;56.10;6.97;;;3.90;99.90;;;;;;5030527;28;20454;-53
2021/03/06 09:07:30;;;;;;;27.25;4.78;;;4.10;99.90;;;;;;5031623;28;20386;-50
2021/03/06 09:10:11;;;;;;;36.92;6.28;;;4.20;99.90;;;;;;5029674;28;20372;-52
2021/03/06 09:12:44;;;;;;;89.60;9.23;;;4.30;99.90;;;;;;5030780;28;20033;-54
2021/03/06 09:15:11;;;;;;;74.03;8.38;;;4.40;99.90;;;;;;5029648;28;20033;-53
2021/03/06 09:17:37;;;;;;;18.40;3.53;;;4.50;99.90;;;;;;5031550;28;20025;-54
2021/03/06 09:20:09;;;;;;;54.58;5.97;;;4.50;99.90;;;;;;5081923;28;20310;-52
2021/03/06 09:22:46;;;;;;;143.95;9.55;;;4.60;99.90;;;;;;5079376;28;20036;-54
2021/03/06 09:25:13;;;;;;;113.78;8.52;;;4.60;99.90;;;;;;5073390;28;20098;-54
2021/03/06 09:27:46;;;;;;;87.43;7.45;;;4.70;99.90;;;;;;5047651;28;20112;-49
2021/03/06 09:30:33;;;;;;;113.25;8.52;;;4.90;99.90;;;;;;5047472;28;20151;-53
2021/03/06 09:32:59;;;;;;;24.60;3.47;;;5.10;99.90;;;;;;5048313;28;20403;-51
2021/03/06 09:35:26;;;;;;;102.13;9.98;;;5.20;99.90;;;;;;5046734;28;20029;-52
2021/03/06 09:38:11;;;;;;;59.83;6.55;;;5.30;99.90;;;;;;5047370;28;20048;-53
2021/03/06 09:40:40;;;;;;;77.60;9.75;;;5.40;99.90;;;;;;5045843;28;20087;-55
2021/03/06 09:43:07;;;;;;;33.42;7.18;;;5.50;99.90;;;;;;5045087;28;20041;-54
2021/03/06 09:45:33;;;;;;;75.82;8.60;;;5.60;99.90;;;;;;5046659;28;20468;-56
2021/03/06 09:48:11;;;;;;;66.88;9.27;;;5.60;99.90;;;;;;5047061;28;20083;-60
2021/03/06 09:50:39;;;;;;;49.13;5.28;;;5.70;99.90;;;;;;5041046;28;20021;-50
2021/03/06 09:53:31;;;;;;;44.95;7.30;;;5.70;99.90;;;;;;5046965;28;20080;-55
2021/03/06 09:56:23;;;;;;;23.77;3.50;;;5.70;99.90;;;;;;5042177;28;20047;-53
2021/03/06 09:58:58;;;;;;;49.47;4.72;;;5.80;99.90;;;;;;5037480;28;20037;-55
2021/03/06 10:01:24;;;;;;;23.95;2.90;;;5.80;99.90;;;;;;5047436;28;20041;-55
2021/03/06 10:03:50;;;;;;;34.70;3.33;;;5.90;99.90;;;;;;5047327;28;20371;-53
2021/03/06 10:06:22;;;;;;;30.17;2.65;;;5.90;99.90;;;;;;5046461;28;20123;-56
2021/03/06 10:09:00;;;;;;;19.05;2.90;;;6.00;99.90;;;;;;5046027;28;20037;-54
2021/03/06 10:11:53;;;;;;;37.72;3.83;;;6.10;99.90;;;;;;5045690;28;20112;-54
2021/03/06 10:14:24;;;;;;;22.13;2.35;;;6.10;99.90;;;;;;5039026;28;20040;-51
2021/03/06 10:16:57;;;;;;;42.47;3.42;;;6.20;99.90;;;;;;5046880;28;20060;-53
2021/03/06 10:19:28;;;;;;;121.57;8.40;;;6.30;99.90;;;;;;5031106;28;20053;-52
2021/03/06 10:22:01;;;;;;;29.80;2.85;;;6.30;99.90;;;;;;5027104;28;20117;-52
2021/03/06 10:24:28;;;;;;;32.65;3.10;;;6.40;99.90;;;;;;5027026;28;20535;-54
2021/03/06 10:26:55;;;;;;;23.20;2.75;;;6.60;99.90;;;;;;5027275;28;20034;-53
2021/03/06 10:29:23;;;;;;;52.20;4.13;;;6.60;99.90;;;;;;5025736;28;20091;-57
2021/03/06 10:32:03;;;;;;;48.15;2.85;;;6.70;99.90;;;;;;5012773;28;20033;-55
2021/03/06 10:34:33;;;;;;;20.10;1.77;;;6.70;99.90;;;;;;5012201;28;20029;-52
2021/03/06 10:37:16;;;;;;;28.50;2.97;;;6.70;99.90;;;;;;5004827;28;20037;-56
2021/03/06 10:40:03;;;;;;;14.73;1.67;;;6.80;99.90;;;;;;5011767;28;20824;-51
2021/03/06 10:42:52;;;;;;;24.33;1.92;;;6.90;99.90;;;;;;5012764;28;20120;-53
2021/03/06 10:45:27;;;;;;;40.40;2.38;;;7.10;99.90;;;;;;5012747;28;20403;-51
2021/03/06 10:47:55;;;;;;;18.90;1.88;;;7.20;99.90;;;;;;5013062;28;20401;-54
2021/03/06 10:50:32;;;;;;;23.75;2.55;;;7.20;99.90;;;;;;5013677;28;20476;-55
2021/03/06 10:53:16;;;;;;;72.82;6.88;;;7.10;99.90;;;;;;5013139;28;20026;-53
2021/03/06 10:55:43;;;;;;;3.55;0.93;;;7.10;99.90;;;;;;5011804;28;20120;-49
2021/03/06 10:58:09;;;;;;;26.95;2.50;;;7.10;99.90;;;;;;5013241;28;20045;-53
2021/03/06 11:00:35;;;;;;;22.05;2.35;;;7.10;99.90;;;;;;5012504;28;20046;-52
2021/03/06 11:03:04;;;;;;;6.20;1.02;;;7.00;99.90;;;;;;5012809;28;20029;-55
2021/03/06 11:05:30;;;;;;;6.53;1.50;;;7.00;99.90;;;;;;5012109;28;20530;-54
2021/03/06 11:08:10;;;;;;;24.02;2.08;;;7.10;99.90;;;;;;5013962;28;20033;-50
2021/03/06 11:10:39;;;;;;;20.63;2.30;;;7.10;99.90;;;;;;5011892;28;20026;-55
2021/03/06 11:13:05;;;;;;;36.90;2.08;;;7.10;99.90;;;;;;5008447;28;20411;-57
2021/03/06 11:15:31;;;;;;;20.75;1.80;;;7.10;99.90;;;;;;5012556;28;20026;-51
2021/03/06 11:18:00;;;;;;;32.47;3.75;;;7.10;99.90;;;;;;5013498;28;20030;-52
2021/03/06 11:20:30;;;;;;;11.30;1.45;;;7.20;99.90;;;;;;5011011;28;20041;-53
2021/03/06 11:23:00;;;;;;;14.55;1.52;;;7.30;99.90;;;;;;5012205;28;20030;-57
2021/03/06 11:25:26;;;;;;;6.80;0.90;;;7.30;99.90;;;;;;5010034;28;20092;-57
2021/03/06 11:27:55;;;;;;;6.22;1.15;;;7.30;99.90;;;;;;5012990;28;20107;-58
2021/03/06 11:30:24;;;;;;;15.65;1.85;;;7.30;99.90;;;;;;5011891;28;20365;-54
2021/03/06 11:32:51;;;;;;;18.27;1.73;;;7.30;99.90;;;;;;5012597;28;20057;-55
2021/03/06 11:35:19;;;;;;;14.15;1.70;;;7.30;99.90;;;;;;5012242;28;20120;-57
2021/03/06 11:37:45;;;;;;;5.30;0.70;;;7.20;99.90;;;;;;5012652;28;20018;-57
2021/03/06 11:40:13;;;;;;;27.95;2.58;;;7.20;99.90;;;;;;5009755;28;20042;-56
2021/03/06 11:42:39;;;;;;;3.85;1.05;;;7.00;99.90;;;;;;5010802;28;20026;-57
2021/03/06 11:45:07;;;;;;;15.98;1.85;;;7.00;99.90;;;;;;4992634;28;20125;-54
2021/03/06 11:47:33;;;;;;;9.90;1.25;;;7.00;99.90;;;;;;5012509;28;20045;-58
2021/03/06 11:49:59;;;;;;;16.73;1.67;;;6.90;99.90;;;;;;5011160;28;20038;-56
2021/03/06 11:52:25;;;;;;;8.65;1.75;;;7.00;99.90;;;;;;5011915;28;20035;-58
2021/03/06 11:54:51;;;;;;;28.23;2.38;;;7.20;99.90;;;;;;5011003;28;20096;-57
2021/03/06 11:57:17;;;;;;;12.02;1.80;;;7.10;99.90;;;;;;5011676;28;20030;-57
2021/03/06 11:59:42;;;;;;;56.55;3.92;;;7.20;99.90;;;;;;5012204;28;20037;-58
2021/03/06 12:02:08;;;;;;;17.25;1.45;;;7.20;99.90;;;;;;5011780;28;20065;-57
2021/03/06 12:04:34;;;;;;;40.38;3.20;;;7.20;99.90;;;;;;5012332;28;20033;-57
2021/03/06 12:07:00;;;;;;;22.48;3.20;;;7.10;99.90;;;;;;4992344;28;20034;-57
2021/03/06 12:09:25;;;;;;;23.95;2.20;;;7.20;99.90;;;;;;4997961;28;20026;-59
2021/03/06 12:11:51;;;;;;;35.85;2.83;;;7.10;99.90;;;;;;5011248;28;20106;-56
2021/03/06 12:14:17;;;;;;;16.80;2.65;;;7.20;99.90;;;;;;5012023;28;20030;-57
2021/03/06 12:16:42;;;;;;;40.78;3.00;;;7.30;99.90;;;;;;5011830;28;20610;-57
2021/03/06 12:19:08;;;;;;;23.50;1.88;;;7.40;99.90;;;;;;5023433;28;20057;-58
2021/03/06 12:21:34;;;;;;;6.13;1.00;;;7.40;99.90;;;;;;5030569;28;20029;-56
2021/03/06 12:24:00;;;;;;;7.18;0.93;;;7.40;99.90;;;;;;5031385;28;20033;-57
2021/03/06 12:26:25;;;;;;;5.57;0.82;;;7.20;99.90;;;;;;5030099;28;20033;-57
2021/03/06 12:28:52;;;;;;;36.15;2.70;;;7.10;99.90;;;;;;5031442;28;20037;-56
2021/03/06 12:31:17;;;;;;;8.18;2.80;;;7.20;99.90;;;;;;5031459;28;20030;-56
2021/03/06 12:33:43;;;;;;;6.20;1.42;;;7.20;99.90;;;;;;5031007;28;20033;-58
2021/03/06 12:36:09;;;;;;;4.43;1.10;;;7.10;99.90;;;;;;5030620;28;20025;-54
2021/03/06 12:38:34;;;;;;;8.70;1.27;;;7.00;99.90;;;;;;5039054;28;20037;-58
2021/03/06 12:41:01;;;;;;;36.95;3.92;;;7.00;99.90;;;;;;5030886;28;20053;-55
2021/03/06 12:43:27;;;;;;;15.32;1.35;;;7.00;99.90;;;;;;5021345;28;20026;-58
2021/03/06 12:45:53;;;;;;;11.85;1.42;;;7.10;99.90;;;;;;5026867;28;20048;-54
2021/03/06 12:48:19;;;;;;;16.67;1.92;;;7.10;99.90;;;;;;5030818;28;20030;-58
2021/03/06 12:50:45;;;;;;;12.35;1.65;;;7.20;99.90;;;;;;5029640;28;20033;-58
2021/03/06 12:53:10;;;;;;;9.73;1.40;;;7.10;99.90;;;;;;5029078;28;20052;-54
2021/03/06 12:55:36;;;;;;;11.13;1.40;;;7.10;99.90;;;;;;5027921;28;20115;-56
2021/03/06 12:58:02;;;;;;;5.40;1.48;;;7.00;99.90;;;;;;5030861;28;20037;-57
2021/03/06 13:00:29;;;;;;;6.05;1.15;;;7.10;99.90;;;;;;5029495;28;20048;-55